createdAt,value
2023-09-13T00:00:34.595Z,11.57
2023-09-13T00:03:37.184Z,11.55
2023-09-13T00:06:39.301Z,10.57
2023-09-13T00:09:42.590Z,11.38
2023-09-13T00:12:44.546Z,11.80
2023-09-13T00:15:46.822Z,12.05
2023-09-13T00:18:48.697Z,11.30
2023-09-13T00:21:50.753Z,10.95
2023-09-13T00:24:52.697Z,12.18
2023-09-13T00:27:54.610Z,11.32
2023-09-13T00:30:58.282Z,11.73
2023-09-13T00:34:00.221Z,11.18
2023-09-13T00:37:02.160Z,11.23
2023-09-13T00:40:06.193Z,10.35
2023-09-13T00:43:08.112Z,11.63
2023-09-13T00:46:10.477Z,11.77
2023-09-13T00:49:12.574Z,10.90
2023-09-13T00:52:15.247Z,10.98
2023-09-13T00:55:20.219Z,10.70
2023-09-13T00:58:23.147Z,11.05
2023-09-13T01:01:25.320Z,10.48
2023-09-13T01:04:27.521Z,11.55
2023-09-13T01:07:30.287Z,10.38
2023-09-13T01:10:32.153Z,10.93
2023-09-13T01:13:34.020Z,10.80
2023-09-13T01:16:57.956Z,11.05
2023-09-13T01:20:11.114Z,10.98
2023-09-13T01:23:37.099Z,11.00
2023-09-13T01:26:53.776Z,11.18
2023-09-13T01:29:57.803Z,11.00
2023-09-13T01:32:59.826Z,10.82
2023-09-13T01:36:01.809Z,10.82
2023-09-13T01:39:06.081Z,10.07
2023-09-13T01:42:11.383Z,10.93
2023-09-13T01:45:15.569Z,10.48
2023-09-13T01:48:19.397Z,11.00
2023-09-13T01:51:21.499Z,11.00
2023-09-13T01:54:23.323Z,10.15
2023-09-13T01:57:25.216Z,10.65
2023-09-13T02:00:27.398Z,10.30
2023-09-13T02:03:29.341Z,11.98
2023-09-13T02:06:31.812Z,11.18
2023-09-13T02:09:33.803Z,11.13
2023-09-13T02:12:35.659Z,9.85
2023-09-13T02:15:41.400Z,10.57
2023-09-13T02:18:43.380Z,10.40
2023-09-13T02:21:46.941Z,10.45
2023-09-13T02:24:48.959Z,11.00
2023-09-13T02:27:50.988Z,10.75
2023-09-13T02:30:53.095Z,10.38
2023-09-13T02:33:55.714Z,10.07
2023-09-13T02:36:57.807Z,10.48
2023-09-13T02:39:59.823Z,9.85
2023-09-13T02:43:01.842Z,10.60
2023-09-13T02:46:03.964Z,10.00
2023-09-13T02:49:06.031Z,9.73
2023-09-13T02:52:07.946Z,9.90
2023-09-13T02:55:10.083Z,9.43
2023-09-13T02:58:12.414Z,9.43
2023-09-13T03:01:14.690Z,10.55
2023-09-13T03:04:19.135Z,9.57
2023-09-13T03:07:23.732Z,10.15
2023-09-13T03:10:27.906Z,10.15
2023-09-13T03:13:29.770Z,10.23
2023-09-13T03:16:31.889Z,10.10
2023-09-13T03:19:33.759Z,9.77
2023-09-13T03:22:35.717Z,9.70
2023-09-13T03:25:37.764Z,9.75
2023-09-13T03:28:39.753Z,9.55
2023-09-13T03:31:42.175Z,10.18
2023-09-13T03:34:48.487Z,9.70
2023-09-13T03:37:50.444Z,9.73
2023-09-13T03:40:52.501Z,10.02
2023-09-13T03:43:54.952Z,10.63
2023-09-13T03:46:57.513Z,10.35
2023-09-13T03:50:00.640Z,10.40
2023-09-13T03:53:02.667Z,9.77
2023-09-13T03:56:06.055Z,9.23
2023-09-13T03:59:08.680Z,10.57
2023-09-13T04:02:11.146Z,10.45
2023-09-13T04:05:13.565Z,9.85
2023-09-13T04:08:15.692Z,9.90
2023-09-13T04:11:17.560Z,10.40
2023-09-13T04:14:19.400Z,10.10
2023-09-13T04:17:24.337Z,10.38
2023-09-13T04:20:26.508Z,11.80
2023-09-13T04:23:29.933Z,11.18
2023-09-13T04:26:32.957Z,10.57
2023-09-13T04:29:35.038Z,10.38
2023-09-13T04:32:37.191Z,10.10
2023-09-13T04:35:39.211Z,9.80
2023-09-13T04:38:41.120Z,9.95
2023-09-13T04:41:43.361Z,10.15
2023-09-13T04:44:46.445Z,9.75
2023-09-13T04:47:49.153Z,9.68
2023-09-13T04:50:51.072Z,9.13
2023-09-13T04:53:53.271Z,10.48
2023-09-13T04:56:55.211Z,9.07
2023-09-13T04:59:57.177Z,9.10
2023-09-13T05:02:59.235Z,8.38
2023-09-13T05:06:01.158Z,8.93
2023-09-13T05:09:03.828Z,8.80
2023-09-13T05:12:06.179Z,9.43
2023-09-13T05:15:08.524Z,8.75
2023-09-13T05:18:10.484Z,7.97
2023-09-13T05:21:12.498Z,8.50
2023-09-13T05:24:14.519Z,8.45
2023-09-13T05:27:16.326Z,9.05
2023-09-13T05:30:18.215Z,8.40
2023-09-13T05:33:20.066Z,8.35
2023-09-13T05:36:22.175Z,8.02
2023-09-13T05:39:24.267Z,8.82
2023-09-13T05:42:26.259Z,8.93
2023-09-13T05:45:29.325Z,8.35
2023-09-13T05:48:31.443Z,8.38
2023-09-13T05:51:33.269Z,8.35
2023-09-13T05:54:35.170Z,8.95
2023-09-13T05:57:36.964Z,8.05
2023-09-13T06:00:38.968Z,8.52
2023-09-13T06:03:41.202Z,8.32
2023-09-13T06:06:43.502Z,8.50
2023-09-13T06:09:45.374Z,8.13
2023-09-13T06:12:47.277Z,8.45
2023-09-13T06:15:49.176Z,7.90
2023-09-13T06:18:51.567Z,8.40
2023-09-13T06:21:53.862Z,8.60
2023-09-13T06:24:55.784Z,8.07
2023-09-13T06:27:57.861Z,7.55
2023-09-13T06:31:04.601Z,7.65
2023-09-13T06:34:20.546Z,8.15
2023-09-13T06:37:27.479Z,7.47
2023-09-13T06:40:35.501Z,7.25
2023-09-13T06:43:47.357Z,7.30
2023-09-13T06:47:03.950Z,8.23
2023-09-13T06:50:07.098Z,8.25
2023-09-13T06:56:17.732Z,8.25
2023-09-13T06:59:23.294Z,8.32
2023-09-13T07:02:32.982Z,9.07
2023-09-13T07:05:35.926Z,9.52
2023-09-13T07:08:37.844Z,9.10
2023-09-13T07:11:39.847Z,9.63
2023-09-13T07:14:41.726Z,9.23
2023-09-13T07:17:44.186Z,9.15
2023-09-13T07:20:46.599Z,10.25
2023-09-13T07:23:48.623Z,10.95
2023-09-13T07:26:50.520Z,10.57
2023-09-13T07:29:52.483Z,11.10
2023-09-13T07:32:54.630Z,11.13
2023-09-13T07:35:56.567Z,10.57
2023-09-13T07:39:01.391Z,9.88
2023-09-13T07:42:04.794Z,10.93
2023-09-13T07:45:08.148Z,10.68
2023-09-13T07:48:10.567Z,8.73
2023-09-13T07:51:12.464Z,7.75
2023-09-13T07:54:14.637Z,7.68
2023-09-13T07:57:16.554Z,7.53
2023-09-13T08:00:18.471Z,7.55
2023-09-13T08:03:20.510Z,8.00
2023-09-13T08:06:23.738Z,8.38
2023-09-13T08:09:25.584Z,8.43
2023-09-13T08:12:27.474Z,8.65
2023-09-13T08:15:43.257Z,7.55
2023-09-13T08:18:49.208Z,7.53
2023-09-13T08:21:51.444Z,7.22
2023-09-13T08:24:53.260Z,7.35
2023-09-13T08:27:55.114Z,8.23
2023-09-13T08:30:57.001Z,7.28
2023-09-13T08:33:58.966Z,8.60
2023-09-13T08:37:00.854Z,8.77
2023-09-13T08:40:02.636Z,8.40
2023-09-13T08:43:04.911Z,8.73
2023-09-13T08:46:08.912Z,9.18
2023-09-13T08:49:11.089Z,9.55
2023-09-13T08:52:13.273Z,8.98
2023-09-13T08:55:16.429Z,7.63
2023-09-13T08:58:20.177Z,7.57
2023-09-13T09:01:26.910Z,6.65
2023-09-13T09:04:29.231Z,7.90
2023-09-13T09:07:31.799Z,7.60
2023-09-13T09:10:34.034Z,7.20
2023-09-13T09:13:40.085Z,6.13
2023-09-13T09:16:44.888Z,6.70
2023-09-13T09:19:46.869Z,6.60
2023-09-13T09:22:48.924Z,6.25
2023-09-13T09:25:51.638Z,6.15
2023-09-13T09:28:55.578Z,6.00
2023-09-13T09:31:59.912Z,5.97
2023-09-13T09:35:01.964Z,8.15
2023-09-13T09:38:07.976Z,6.47
2023-09-13T09:41:09.869Z,6.65
2023-09-13T09:44:11.934Z,6.18
2023-09-13T09:47:18.005Z,6.30
2023-09-13T09:50:20.178Z,5.80
2023-09-13T09:53:26.001Z,6.10
2023-09-13T09:56:28.170Z,5.78
2023-09-13T09:59:30.988Z,5.30
2023-09-13T10:02:33.211Z,5.47
2023-09-13T10:05:51.506Z,5.97
2023-09-13T10:08:53.712Z,5.05
2023-09-13T10:12:02.055Z,5.07
2023-09-13T10:15:05.238Z,5.05
2023-09-13T10:18:08.367Z,5.50
2023-09-13T10:21:11.153Z,5.50
2023-09-13T10:24:17.277Z,4.82
2023-09-13T10:27:20.622Z,4.97
2023-09-13T10:30:26.435Z,5.15
2023-09-13T10:33:33.174Z,5.47
2023-09-13T10:36:48.720Z,4.95
2023-09-13T10:40:00.999Z,5.43
2023-09-13T10:43:03.780Z,5.05
2023-09-13T10:46:06.044Z,5.10
2023-09-13T10:49:08.423Z,5.35
2023-09-13T10:52:10.815Z,4.82
2023-09-13T10:55:14.446Z,5.65
2023-09-13T10:58:21.952Z,4.93
2023-09-13T11:01:25.901Z,5.97
2023-09-13T11:04:31.285Z,5.15
2023-09-13T11:07:33.892Z,5.65
2023-09-13T11:10:35.796Z,5.18
2023-09-13T11:13:38.175Z,5.60
2023-09-13T11:16:41.422Z,4.95
2023-09-13T11:19:44.794Z,4.82
2023-09-13T11:23:02.032Z,4.50
2023-09-13T11:26:08.606Z,4.40
2023-09-13T11:29:27.103Z,4.82
2023-09-13T11:32:32.201Z,4.60
2023-09-13T11:35:35.478Z,4.40
2023-09-13T11:38:37.897Z,4.18
2023-09-13T11:45:01.738Z,4.25
2023-09-13T11:48:07.070Z,5.38
2023-09-13T11:51:21.343Z,5.68
2023-09-13T11:54:26.078Z,4.80
2023-09-13T11:57:57.264Z,4.50
2023-09-13T12:01:05.253Z,4.18
2023-09-13T12:04:35.343Z,4.70
2023-09-13T12:07:32.704Z,3.83
2023-09-13T12:10:41.593Z,3.47
2023-09-13T12:16:56.416Z,4.63
2023-09-13T12:19:58.375Z,4.35
2023-09-13T12:23:02.293Z,3.50
2023-09-13T12:26:07.276Z,5.05
2023-09-13T12:29:09.526Z,4.13
2023-09-13T12:32:11.584Z,4.05
2023-09-13T12:35:14.348Z,3.92
2023-09-13T12:38:18.452Z,3.47
2023-09-13T12:41:22.088Z,3.75
2023-09-13T12:44:24.199Z,4.40
2023-09-13T12:47:26.212Z,3.55
2023-09-13T12:50:33.857Z,3.95
2023-09-13T12:53:37.605Z,3.58
2023-09-13T12:56:40.711Z,3.85
2023-09-13T12:59:43.052Z,3.85
2023-09-13T13:02:49.263Z,3.92
2023-09-13T13:05:51.962Z,3.92
2023-09-13T13:09:05.657Z,4.45
2023-09-13T13:12:15.797Z,4.05
2023-09-13T13:15:17.819Z,3.97
2023-09-13T13:18:19.753Z,3.92
2023-09-13T13:21:38.656Z,4.45
2023-09-13T13:24:43.191Z,3.78
2023-09-13T13:27:45.089Z,4.32
2023-09-13T13:30:47.329Z,3.90
2023-09-13T13:33:49.572Z,4.57
2023-09-13T13:36:51.430Z,4.60
2023-09-13T13:39:53.444Z,3.75
2023-09-13T13:42:55.358Z,4.13
2023-09-13T13:45:57.716Z,3.90
2023-09-13T13:48:59.716Z,5.38
2023-09-13T13:52:01.594Z,4.03
2023-09-13T13:55:03.906Z,3.75
2023-09-13T13:58:06.612Z,3.60
2023-09-13T14:01:08.507Z,4.25
2023-09-13T14:04:11.480Z,3.85
2023-09-13T14:07:13.390Z,4.85
2023-09-13T14:10:15.233Z,4.45
2023-09-13T14:13:18.922Z,3.40
2023-09-13T14:16:20.883Z,4.88
2023-09-13T14:19:22.797Z,3.10
2023-09-13T14:22:24.727Z,3.85
2023-09-13T14:25:27.309Z,3.28
2023-09-13T14:28:32.629Z,3.63
2023-09-13T14:31:38.546Z,3.55
2023-09-13T14:34:43.415Z,3.60
2023-09-13T14:37:45.701Z,3.63
2023-09-13T14:40:47.641Z,3.50
2023-09-13T14:43:49.448Z,4.32
2023-09-13T14:46:53.804Z,4.57
2023-09-13T14:49:56.036Z,3.80
2023-09-13T14:52:58.015Z,3.40
2023-09-13T14:56:00.195Z,3.85
2023-09-13T14:59:02.086Z,3.42
2023-09-13T15:02:05.093Z,5.35
2023-09-13T15:05:08.297Z,6.65
2023-09-13T15:08:10.199Z,6.43
2023-09-13T15:11:12.093Z,7.45
2023-09-13T15:14:14.193Z,7.93
2023-09-13T15:17:16.266Z,8.55
2023-09-13T15:20:18.107Z,8.40
2023-09-13T15:23:19.976Z,6.53
2023-09-13T15:26:22.817Z,6.32
2023-09-13T15:29:24.663Z,7.05
2023-09-13T15:32:26.528Z,7.28
2023-09-13T15:35:28.745Z,9.98
2023-09-13T15:38:30.990Z,9.48
2023-09-13T15:41:33.146Z,8.52
2023-09-13T15:44:35.080Z,8.55
2023-09-13T15:47:38.699Z,8.55
2023-09-13T15:50:41.153Z,8.48
2023-09-13T15:53:43.313Z,8.45
2023-09-13T15:56:45.367Z,7.85
2023-09-13T15:59:47.481Z,8.10
2023-09-13T16:02:49.459Z,9.05
2023-09-13T16:05:52.100Z,8.48
2023-09-13T16:08:53.979Z,8.70
2023-09-13T16:11:55.936Z,10.27
2023-09-13T16:14:58.451Z,11.07
2023-09-13T16:18:00.413Z,11.98
2023-09-13T16:21:02.442Z,10.68
2023-09-13T16:24:04.648Z,14.00
2023-09-13T16:27:07.290Z,12.25
2023-09-13T16:30:10.163Z,11.95
2023-09-13T16:33:12.127Z,10.75
2023-09-13T16:36:14.152Z,10.65
2023-09-13T16:39:17.376Z,13.13
2023-09-13T16:42:19.395Z,15.82
2023-09-13T16:45:23.606Z,13.32
2023-09-13T16:48:34.407Z,11.68
2023-09-13T16:51:37.059Z,12.00
2023-09-13T16:54:40.380Z,13.25
2023-09-13T16:57:42.452Z,13.23
2023-09-13T17:00:44.428Z,16.95
2023-09-13T17:03:46.869Z,13.35
2023-09-13T17:06:51.189Z,12.75
2023-09-13T17:09:53.338Z,11.25
2023-09-13T17:12:58.165Z,13.55
2023-09-13T17:16:00.066Z,11.73
2023-09-13T17:19:02.195Z,9.65
2023-09-13T17:22:04.420Z,8.80
2023-09-13T17:25:06.571Z,8.55
2023-09-13T17:28:08.537Z,8.30
2023-09-13T17:31:11.228Z,8.70
2023-09-13T17:34:13.290Z,8.70
2023-09-13T17:37:15.278Z,8.20
2023-09-13T17:40:17.192Z,7.97
2023-09-13T17:43:19.151Z,7.70
2023-09-13T17:46:21.091Z,7.70
2023-09-13T17:49:23.089Z,8.57
2023-09-13T17:52:25.190Z,8.80
2023-09-13T17:55:27.084Z,9.00
2023-09-13T17:58:29.034Z,8.55
2023-09-13T18:01:30.901Z,8.88
2023-09-13T18:04:32.878Z,8.85
2023-09-13T18:07:38.733Z,9.02
2023-09-13T18:10:41.651Z,8.63
2023-09-13T18:13:45.626Z,8.73
2023-09-13T18:16:48.204Z,8.52
2023-09-13T18:19:50.572Z,8.50
2023-09-13T18:22:52.443Z,8.77
2023-09-13T18:25:54.287Z,8.48
2023-09-13T18:28:56.259Z,7.93
2023-09-13T18:31:59.792Z,8.88
2023-09-13T18:35:01.722Z,8.25
2023-09-13T18:38:04.378Z,9.13
2023-09-13T18:41:07.167Z,8.35
2023-09-13T18:44:11.307Z,9.05
2023-09-13T18:47:13.437Z,9.27
2023-09-13T18:50:15.420Z,10.18
2023-09-13T18:53:17.291Z,10.60
2023-09-13T18:56:19.176Z,11.27
2023-09-13T18:59:24.190Z,10.23
2023-09-13T19:02:27.228Z,10.10
2023-09-13T19:05:29.138Z,10.50
2023-09-13T19:08:31.847Z,10.10
2023-09-13T19:11:35.796Z,11.20
2023-09-13T19:14:37.791Z,11.48
2023-09-13T19:17:39.708Z,11.43
2023-09-13T19:20:46.663Z,12.32
2023-09-13T19:23:49.505Z,13.35
2023-09-13T19:26:51.313Z,14.40
2023-09-13T19:29:54.107Z,14.45
2023-09-13T19:32:56.113Z,15.23
2023-09-13T19:36:02.858Z,14.32
2023-09-13T19:39:07.329Z,16.05
2023-09-13T19:42:10.144Z,16.23
2023-09-13T19:45:12.129Z,16.55
2023-09-13T19:48:14.057Z,17.23
2023-09-13T19:51:16.209Z,17.45
2023-09-13T19:54:18.013Z,16.73
2023-09-13T19:57:19.895Z,16.55
2023-09-13T20:00:24.681Z,17.75
2023-09-13T20:03:28.106Z,15.07
2023-09-13T20:06:32.251Z,15.57
2023-09-13T20:09:34.306Z,14.90
2023-09-13T20:12:36.237Z,15.25
2023-09-13T20:15:38.328Z,14.50
2023-09-13T20:18:40.426Z,16.23
2023-09-13T20:21:42.375Z,15.07
2023-09-13T20:24:44.840Z,14.77
2023-09-13T20:27:47.004Z,15.77
2023-09-13T20:30:49.066Z,16.00
2023-09-13T20:33:51.075Z,15.65
2023-09-13T20:36:53.145Z,15.43
2023-09-13T20:39:58.199Z,16.58
2023-09-13T20:43:00.154Z,16.77
2023-09-13T20:46:02.221Z,15.95
2023-09-13T20:49:04.890Z,15.95
2023-09-13T20:52:07.140Z,14.70
2023-09-13T20:55:09.707Z,15.20
2023-09-13T20:58:11.572Z,16.77
2023-09-13T21:01:13.509Z,16.10
2023-09-13T21:04:15.544Z,18.30
2023-09-13T21:07:17.460Z,16.92
2023-09-13T21:10:19.488Z,17.80
2023-09-13T21:13:22.305Z,15.32
2023-09-13T21:16:24.536Z,16.83
2023-09-13T21:19:26.425Z,16.85
2023-09-13T21:22:28.367Z,15.95
2023-09-13T21:25:30.189Z,15.98
2023-09-13T21:28:32.081Z,15.18
2023-09-13T21:31:34.013Z,16.88
2023-09-13T21:34:46.845Z,16.23
2023-09-13T21:37:57.911Z,16.25
2023-09-13T21:40:59.797Z,15.98
2023-09-13T21:44:01.617Z,15.13
2023-09-13T21:47:03.614Z,14.80
2023-09-13T21:50:06.094Z,14.20
2023-09-13T21:53:08.020Z,13.65
2023-09-13T21:56:09.873Z,15.15
2023-09-13T21:59:12.520Z,14.38
2023-09-13T22:02:14.578Z,13.52
2023-09-13T22:05:23.523Z,13.27
2023-09-13T22:08:25.744Z,14.90
2023-09-13T22:11:28.764Z,13.57
2023-09-13T22:14:31.149Z,13.60
2023-09-13T22:17:33.029Z,14.20
2023-09-13T22:20:36.576Z,12.68
2023-09-13T22:23:38.684Z,13.50
2023-09-13T22:26:40.622Z,14.73
2023-09-13T22:29:48.115Z,13.80
2023-09-13T22:32:50.111Z,13.40
2023-09-13T22:35:52.095Z,13.52
2023-09-13T22:39:07.707Z,12.98
2023-09-13T22:42:12.037Z,12.63
2023-09-13T22:45:13.964Z,12.18
2023-09-13T22:48:15.928Z,12.77
2023-09-13T22:51:18.038Z,12.68
2023-09-13T22:54:23.504Z,12.48
2023-09-13T22:57:25.474Z,12.30
2023-09-13T23:00:27.792Z,13.10
2023-09-13T23:03:43.721Z,11.63
2023-09-13T23:06:48.198Z,12.30
2023-09-13T23:09:50.057Z,12.88
2023-09-13T23:12:53.894Z,12.77
2023-09-13T23:16:06.042Z,11.93
2023-09-13T23:19:09.810Z,11.65
2023-09-13T23:22:11.716Z,12.55
2023-09-13T23:25:14.069Z,11.85
2023-09-13T23:28:15.934Z,12.43
2023-09-13T23:31:19.330Z,12.82
2023-09-13T23:34:21.416Z,12.25
2023-09-13T23:37:23.250Z,12.63
2023-09-13T23:40:25.162Z,11.85
2023-09-13T23:43:27.082Z,12.15
2023-09-13T23:46:28.995Z,11.80
2023-09-13T23:49:32.408Z,11.32
2023-09-13T23:52:34.291Z,12.90
2023-09-13T23:55:36.284Z,11.30
2023-09-13T23:58:38.150Z,11.23
